createdAt,value
2023-04-19T00:00:23.982Z,85.58
2023-04-19T00:03:03.091Z,86.36
2023-04-19T00:05:36.530Z,86.23
2023-04-19T00:08:12.895Z,87.55
2023-04-19T00:10:47.058Z,87.40
2023-04-19T00:13:24.491Z,86.74
2023-04-19T00:15:59.023Z,86.43
2023-04-19T00:18:34.110Z,86.54
2023-04-19T00:21:05.785Z,87.65
2023-04-19T00:23:37.800Z,88.17
2023-04-19T00:26:07.084Z,87.84
2023-04-19T00:28:36.274Z,89.12
2023-04-19T00:31:07.457Z,88.81
2023-04-19T00:33:39.353Z,89.41
2023-04-19T00:36:10.988Z,88.82
2023-04-19T00:38:47.104Z,89.41
2023-04-19T00:41:18.084Z,90.20
2023-04-19T00:43:51.747Z,89.78
2023-04-19T00:46:31.840Z,89.51
2023-04-19T00:49:02.862Z,90.67
2023-04-19T00:51:33.711Z,90.72
2023-04-19T00:54:15.713Z,90.52
2023-04-19T00:56:45.735Z,90.81
2023-04-19T00:59:17.545Z,91.06
2023-04-19T01:01:48.213Z,90.40
2023-04-19T01:04:25.518Z,91.25
2023-04-19T01:06:55.450Z,91.04
2023-04-19T01:09:32.173Z,90.58
2023-04-19T01:12:12.177Z,92.18
2023-04-19T01:14:44.425Z,90.64
2023-04-19T01:17:22.157Z,91.34
2023-04-19T01:19:53.849Z,92.91
2023-04-19T01:22:26.662Z,92.40
2023-04-19T01:24:58.641Z,92.53
2023-04-19T01:27:30.197Z,93.72
2023-04-19T01:30:09.459Z,93.44
2023-04-19T01:32:38.166Z,93.89
2023-04-19T01:35:11.367Z,92.92
2023-04-19T01:37:43.607Z,92.43
2023-04-19T01:40:14.424Z,93.57
2023-04-19T01:42:46.098Z,93.82
2023-04-19T01:45:22.316Z,94.04
2023-04-19T01:48:05.590Z,92.92
2023-04-19T01:50:36.692Z,91.94
2023-04-19T01:53:20.252Z,92.61
2023-04-19T01:55:48.276Z,93.67
2023-04-19T01:58:26.076Z,93.59
2023-04-19T02:00:55.522Z,93.87
2023-04-19T02:03:24.015Z,94.51
2023-04-19T02:06:01.028Z,94.22
2023-04-19T02:08:31.084Z,94.94
2023-04-19T02:11:02.074Z,93.60
2023-04-19T02:13:33.303Z,94.95
2023-04-19T02:16:16.556Z,94.45
2023-04-19T02:18:48.448Z,92.63
2023-04-19T02:21:22.441Z,93.25
2023-04-19T02:24:02.082Z,93.45
2023-04-19T02:26:32.746Z,94.54
2023-04-19T02:29:07.038Z,93.39
2023-04-19T02:31:40.311Z,93.09
2023-04-19T02:34:12.035Z,92.47
2023-04-19T02:36:40.915Z,93.30
2023-04-19T02:39:16.867Z,93.69
2023-04-19T02:41:47.057Z,92.79
2023-04-19T02:44:18.869Z,91.70
2023-04-19T02:46:53.608Z,93.22
2023-04-19T02:49:33.229Z,93.94
2023-04-19T02:52:16.522Z,93.05
2023-04-19T02:54:51.759Z,93.28
2023-04-19T02:57:24.961Z,93.14
2023-04-19T02:59:53.373Z,92.77
2023-04-19T03:02:29.624Z,92.62
2023-04-19T03:05:02.737Z,93.85
2023-04-19T03:07:31.982Z,92.88
2023-04-19T03:10:01.667Z,92.55
2023-04-19T03:12:38.072Z,92.97
2023-04-19T03:15:13.826Z,93.59
2023-04-19T03:17:42.763Z,93.01
2023-04-19T03:20:17.288Z,93.59
2023-04-19T03:22:48.410Z,93.78
2023-04-19T03:25:27.204Z,94.45
2023-04-19T03:28:12.064Z,92.11
2023-04-19T03:31:09.766Z,91.94
2023-04-19T03:33:41.145Z,93.10
2023-04-19T03:36:14.465Z,92.63
2023-04-19T03:38:48.095Z,92.86
2023-04-19T03:41:23.732Z,93.67
2023-04-19T03:44:03.481Z,94.58
2023-04-19T03:46:35.443Z,94.25
2023-04-19T03:49:06.424Z,94.12
2023-04-19T03:51:36.021Z,96.41
2023-04-19T03:54:06.358Z,95.61
2023-04-19T03:56:38.350Z,97.31
2023-04-19T03:59:08.180Z,97.02
2023-04-19T04:01:42.770Z,96.66
2023-04-19T04:04:20.035Z,96.12
2023-04-19T04:06:49.670Z,96.37
2023-04-19T04:09:33.732Z,96.83
2023-04-19T04:12:08.045Z,97.43
2023-04-19T04:14:40.941Z,98.98
2023-04-19T04:17:22.331Z,99.54
2023-04-19T04:19:54.337Z,97.30
2023-04-19T04:22:34.543Z,96.28
2023-04-19T04:25:03.852Z,97.03
2023-04-19T04:27:42.684Z,96.75
2023-04-19T04:30:26.572Z,97.12
2023-04-19T04:33:01.285Z,98.54
2023-04-19T04:35:38.272Z,97.78
2023-04-19T04:38:24.050Z,97.77
2023-04-19T04:40:54.937Z,97.68
2023-04-19T04:43:31.614Z,98.93
2023-04-19T04:46:08.548Z,97.78
2023-04-19T04:48:51.129Z,96.58
2023-04-19T04:51:22.064Z,97.44
2023-04-19T04:53:58.200Z,97.48
2023-04-19T04:56:27.744Z,99.00
2023-04-19T04:59:04.652Z,100.00
2023-04-19T05:01:41.351Z,100.00
2023-04-19T05:04:09.998Z,100.00
2023-04-19T05:06:42.608Z,100.00
2023-04-19T05:09:13.078Z,100.00
2023-04-19T05:11:44.897Z,100.00
2023-04-19T05:14:20.417Z,100.00
2023-04-19T05:16:52.084Z,100.00
2023-04-19T05:19:21.227Z,100.00
2023-04-19T05:21:59.432Z,100.00
2023-04-19T05:24:30.288Z,100.00
2023-04-19T05:27:03.522Z,100.00
2023-04-19T05:29:33.781Z,100.00
2023-04-19T05:32:03.257Z,100.00
2023-04-19T05:34:38.946Z,100.00
2023-04-19T05:37:11.116Z,100.00
2023-04-19T05:39:47.243Z,100.00
2023-04-19T05:42:25.007Z,100.00
2023-04-19T05:45:06.143Z,100.00
2023-04-19T05:47:59.162Z,100.00
2023-04-19T05:50:46.038Z,100.00
2023-04-19T05:53:39.186Z,100.00
2023-04-19T05:56:20.021Z,100.00
2023-04-19T05:58:48.172Z,100.00
2023-04-19T06:01:26.660Z,100.00
2023-04-19T06:03:57.649Z,100.00
2023-04-19T06:06:29.891Z,100.00
2023-04-19T06:09:01.799Z,100.00
2023-04-19T06:11:49.991Z,100.00
2023-04-19T06:14:22.540Z,100.00
2023-04-19T06:17:04.743Z,100.00
2023-04-19T06:19:34.035Z,100.00
2023-04-19T06:22:03.432Z,100.00
2023-04-19T06:24:37.276Z,100.00
2023-04-19T06:27:15.411Z,100.00
2023-04-19T06:29:46.792Z,100.00
2023-04-19T06:32:28.232Z,100.00
2023-04-19T06:35:07.289Z,100.00
2023-04-19T06:37:39.043Z,100.00
2023-04-19T06:40:10.032Z,100.00
2023-04-19T06:42:41.705Z,100.00
2023-04-19T06:45:16.244Z,100.00
2023-04-19T06:47:52.302Z,100.00
2023-04-19T06:50:22.210Z,100.00
2023-04-19T06:52:56.247Z,100.00
2023-04-19T06:55:27.515Z,100.00
2023-04-19T06:58:02.212Z,100.00
2023-04-19T07:00:31.354Z,100.00
2023-04-19T07:06:15.281Z,100.00
2023-04-19T07:08:50.360Z,100.00
2023-04-19T07:11:30.360Z,100.00
2023-04-19T07:14:01.876Z,100.00
2023-04-19T07:16:30.083Z,100.00
2023-04-19T07:19:02.654Z,100.00
2023-04-19T07:21:35.124Z,100.00
2023-04-19T07:24:09.455Z,100.00
2023-04-19T07:26:41.346Z,100.00
2023-04-19T07:29:10.153Z,100.00
2023-04-19T07:31:41.848Z,100.00
2023-04-19T07:34:19.425Z,100.00
2023-04-19T07:36:53.753Z,100.00
2023-04-19T07:39:21.884Z,100.00
2023-04-19T07:41:52.869Z,100.00
2023-04-19T07:44:22.192Z,100.00
2023-04-19T07:47:00.391Z,100.00
2023-04-19T07:49:34.157Z,100.00
2023-04-19T07:52:04.374Z,100.00
2023-04-19T07:54:33.114Z,100.00
2023-04-19T07:57:03.772Z,100.00
2023-04-19T07:59:35.682Z,100.00
2023-04-19T08:02:13.574Z,100.00
2023-04-19T08:04:48.422Z,100.00
2023-04-19T08:07:18.350Z,100.00
2023-04-19T08:09:46.584Z,100.00
2023-04-19T08:12:30.277Z,100.00
2023-04-19T08:15:19.683Z,100.00
2023-04-19T08:18:06.068Z,100.00
2023-04-19T08:20:37.270Z,100.00
2023-04-19T08:23:24.010Z,100.00
2023-04-19T08:26:02.847Z,100.00
2023-04-19T08:28:31.352Z,100.00
2023-04-19T08:31:02.972Z,100.00
2023-04-19T08:33:31.183Z,100.00
2023-04-19T08:36:01.723Z,100.00
2023-04-19T08:38:32.110Z,100.00
2023-04-19T08:41:02.727Z,100.00
2023-04-19T08:43:41.787Z,100.00
2023-04-19T08:46:12.233Z,100.00
2023-04-19T08:48:44.235Z,100.00
2023-04-19T08:51:17.546Z,100.00
2023-04-19T08:53:53.595Z,100.00
2023-04-19T08:56:34.905Z,100.00
2023-04-19T08:59:18.120Z,100.00
2023-04-19T09:01:51.318Z,100.00
2023-04-19T09:04:36.301Z,100.00
2023-04-19T09:07:11.467Z,100.00
2023-04-19T09:09:55.680Z,100.00
2023-04-19T09:12:35.025Z,100.00
2023-04-19T09:15:05.612Z,100.00
2023-04-19T09:17:34.005Z,100.00
2023-04-19T09:20:04.100Z,100.00
2023-04-19T09:22:36.295Z,100.00
2023-04-19T09:27:40.375Z,100.00
2023-04-19T09:30:17.633Z,100.00
2023-04-19T09:32:55.029Z,100.00
2023-04-19T09:35:25.911Z,100.00
2023-04-19T09:38:08.293Z,100.00
2023-04-19T09:40:38.806Z,100.00
2023-04-19T09:43:32.890Z,100.00
2023-04-19T09:46:01.740Z,100.00
2023-04-19T09:48:30.320Z,100.00
2023-04-19T09:51:08.903Z,100.00
2023-04-19T09:53:50.180Z,100.00
2023-04-19T09:56:23.434Z,100.00
2023-04-19T09:59:08.755Z,100.00
2023-04-19T10:01:48.098Z,100.00
2023-04-19T10:04:33.598Z,100.00
2023-04-19T10:09:55.090Z,100.00
2023-04-19T10:15:00.263Z,100.00
2023-04-19T10:17:29.476Z,100.00
2023-04-19T10:20:06.708Z,100.00
2023-04-19T10:22:38.060Z,100.00
2023-04-19T10:25:17.180Z,100.00
2023-04-19T10:27:49.201Z,100.00
2023-04-19T10:30:22.535Z,100.00
2023-04-19T10:32:58.564Z,100.00
2023-04-19T10:35:29.460Z,100.00
2023-04-19T10:38:07.357Z,100.00
2023-04-19T10:41:20.984Z,100.00
2023-04-19T10:44:16.826Z,100.00
2023-04-19T10:46:50.716Z,100.00
2023-04-19T10:49:24.669Z,100.00
2023-04-19T10:51:55.464Z,100.00
2023-04-19T10:54:37.737Z,100.00
2023-04-19T10:57:08.363Z,100.00
2023-04-19T10:59:43.035Z,100.00
2023-04-19T11:02:34.254Z,100.00
2023-04-19T11:05:05.612Z,100.00
2023-04-19T11:07:42.104Z,98.94
2023-04-19T11:10:13.501Z,97.50
2023-04-19T11:12:51.215Z,98.08
2023-04-19T11:15:25.526Z,100.00
2023-04-19T11:18:08.827Z,99.40
2023-04-19T11:20:42.937Z,100.00
2023-04-19T11:23:21.473Z,100.00
2023-04-19T11:25:53.411Z,100.00
2023-04-19T11:28:25.055Z,99.05
2023-04-19T11:30:57.923Z,97.35
2023-04-19T11:33:28.867Z,97.44
2023-04-19T11:35:57.442Z,98.69
2023-04-19T11:38:29.926Z,97.36
2023-04-19T11:41:01.862Z,97.76
2023-04-19T11:43:34.635Z,96.38
2023-04-19T11:46:13.615Z,97.77
2023-04-19T11:48:57.827Z,98.41
2023-04-19T11:51:27.988Z,95.94
2023-04-19T11:53:57.257Z,97.44
2023-04-19T11:56:27.498Z,95.57
2023-04-19T11:58:59.165Z,94.93
2023-04-19T12:01:40.977Z,93.82
2023-04-19T12:04:16.409Z,93.69
2023-04-19T12:06:53.090Z,93.42
2023-04-19T12:09:24.144Z,92.84
2023-04-19T12:11:57.008Z,93.10
2023-04-19T12:14:28.595Z,91.83
2023-04-19T12:17:12.188Z,89.40
2023-04-19T12:19:52.842Z,87.47
2023-04-19T12:22:24.531Z,88.38
2023-04-19T12:24:59.406Z,88.28
2023-04-19T12:27:28.733Z,87.44
2023-04-19T12:29:59.673Z,86.44
2023-04-19T12:32:30.217Z,88.17
2023-04-19T12:35:07.861Z,88.44
2023-04-19T12:37:38.064Z,88.42
2023-04-19T12:40:18.121Z,86.08
2023-04-19T12:42:49.563Z,84.02
2023-04-19T12:45:27.997Z,84.45
2023-04-19T12:48:11.749Z,82.44
2023-04-19T12:50:43.790Z,82.15
2023-04-19T12:53:21.726Z,80.05
2023-04-19T12:55:53.522Z,82.07
2023-04-19T12:58:25.343Z,81.35
2023-04-19T13:00:53.500Z,81.43
2023-04-19T13:03:26.978Z,82.90
2023-04-19T13:05:58.933Z,81.70
2023-04-19T13:08:41.440Z,81.17
2023-04-19T13:11:16.633Z,82.44
2023-04-19T13:13:49.848Z,82.97
2023-04-19T13:16:28.021Z,83.39
2023-04-19T13:19:03.887Z,80.34
2023-04-19T13:21:43.984Z,81.86
2023-04-19T13:24:15.990Z,82.13
2023-04-19T13:26:48.997Z,83.41
2023-04-19T13:29:18.815Z,82.37
2023-04-19T13:31:50.264Z,81.80
2023-04-19T13:34:27.025Z,80.07
2023-04-19T13:36:55.680Z,79.10
2023-04-19T13:39:25.405Z,79.11
2023-04-19T13:41:55.876Z,78.83
2023-04-19T13:44:32.659Z,78.29
2023-04-19T13:47:02.056Z,76.90
2023-04-19T13:49:46.880Z,75.20
2023-04-19T13:52:15.605Z,73.43
2023-04-19T13:55:00.636Z,73.69
2023-04-19T13:57:30.312Z,73.12
2023-04-19T14:00:01.175Z,74.26
2023-04-19T14:02:29.865Z,74.22
2023-04-19T14:05:05.005Z,71.43
2023-04-19T14:07:37.022Z,70.48
2023-04-19T14:10:06.988Z,70.23
2023-04-19T14:12:37.397Z,66.29
2023-04-19T14:15:08.659Z,67.11
2023-04-19T14:17:39.803Z,67.49
2023-04-19T14:20:12.674Z,66.73
2023-04-19T14:22:57.510Z,63.70
2023-04-19T14:25:27.024Z,63.54
2023-04-19T14:27:58.325Z,65.19
2023-04-19T14:30:29.382Z,64.50
2023-04-19T14:33:00.644Z,64.39
2023-04-19T14:35:31.473Z,63.04
2023-04-19T14:38:02.022Z,63.01
2023-04-19T14:40:37.125Z,64.31
2023-04-19T14:43:05.996Z,64.56
2023-04-19T14:45:46.740Z,65.67
2023-04-19T14:48:15.924Z,65.89
2023-04-19T14:51:00.725Z,65.22
2023-04-19T14:53:34.558Z,66.72
2023-04-19T14:56:16.428Z,67.53
2023-04-19T14:58:56.756Z,67.40
2023-04-19T15:01:26.733Z,67.59
2023-04-19T15:04:03.249Z,67.71
2023-04-19T15:06:40.893Z,68.09
2023-04-19T15:09:10.882Z,69.75
2023-04-19T15:11:42.713Z,69.50
2023-04-19T15:14:10.853Z,68.58
2023-04-19T15:16:47.841Z,68.07
2023-04-19T15:19:19.373Z,66.45
2023-04-19T15:22:06.956Z,66.46
2023-04-19T15:24:36.871Z,63.36
2023-04-19T15:27:07.454Z,63.24
2023-04-19T15:29:36.918Z,64.46
2023-04-19T15:32:06.648Z,65.28
2023-04-19T15:34:38.925Z,65.53
2023-04-19T15:37:22.404Z,63.74
2023-04-19T15:39:51.628Z,62.03
2023-04-19T15:42:20.083Z,60.88
2023-04-19T15:44:53.202Z,61.05
2023-04-19T15:47:24.229Z,60.35
2023-04-19T15:49:57.445Z,61.70
2023-04-19T15:52:29.557Z,61.55
2023-04-19T15:55:03.476Z,61.07
2023-04-19T15:57:31.839Z,60.35
2023-04-19T16:00:03.766Z,60.12
2023-04-19T16:02:52.890Z,61.05
2023-04-19T16:05:23.529Z,60.51
2023-04-19T16:08:06.812Z,60.62
2023-04-19T16:10:44.436Z,60.71
2023-04-19T16:13:21.808Z,62.38
2023-04-19T16:15:53.609Z,62.94
2023-04-19T16:18:24.406Z,63.82
2023-04-19T16:21:02.043Z,63.78
2023-04-19T16:23:34.622Z,65.13
2023-04-19T16:26:04.059Z,65.89
2023-04-19T16:28:32.875Z,66.19
2023-04-19T16:31:09.588Z,66.13
2023-04-19T16:33:37.829Z,66.06
2023-04-19T16:36:07.378Z,66.97
2023-04-19T16:38:39.580Z,67.14
2023-04-19T16:41:29.219Z,66.89
2023-04-19T16:44:00.002Z,67.38
2023-04-19T16:46:31.748Z,68.82
2023-04-19T16:49:01.125Z,68.17
2023-04-19T16:51:30.810Z,68.97
2023-04-19T16:54:14.876Z,70.21
2023-04-19T16:56:44.495Z,70.38
2023-04-19T16:59:19.566Z,71.49
2023-04-19T17:04:33.489Z,71.81
2023-04-19T17:07:04.188Z,72.04
2023-04-19T17:09:36.408Z,72.57
2023-04-19T17:12:18.452Z,72.96
2023-04-19T17:14:51.333Z,74.46
2023-04-19T17:17:21.553Z,74.48
2023-04-19T17:20:05.364Z,73.27
2023-04-19T17:22:33.759Z,74.62
2023-04-19T17:25:12.125Z,75.12
2023-04-19T17:27:50.431Z,76.02
2023-04-19T17:30:28.925Z,74.35
2023-04-19T17:32:58.917Z,76.10
2023-04-19T17:35:27.323Z,75.93
2023-04-19T17:37:58.811Z,76.24
2023-04-19T17:40:44.075Z,76.99
2023-04-19T17:43:26.935Z,77.19
2023-04-19T17:46:10.835Z,77.69
2023-04-19T17:49:01.196Z,78.33
2023-04-19T17:54:21.487Z,80.34
2023-04-19T17:57:08.727Z,79.91
2023-04-19T17:59:53.493Z,80.84
2023-04-19T18:02:34.924Z,81.56
2023-04-19T18:05:07.083Z,81.26
2023-04-19T18:07:43.677Z,80.34
2023-04-19T18:10:14.922Z,80.12
2023-04-19T18:12:47.432Z,80.23
2023-04-19T18:15:19.486Z,81.33
2023-04-19T18:17:53.506Z,81.28
2023-04-19T18:20:33.183Z,81.41
2023-04-19T18:23:03.681Z,81.19
2023-04-19T18:25:37.764Z,81.44
2023-04-19T18:28:33.771Z,80.88
2023-04-19T18:31:08.888Z,81.50
2023-04-19T18:33:54.401Z,82.61
2023-04-19T18:36:55.447Z,83.35
2023-04-19T18:39:28.595Z,82.16
2023-04-19T18:42:15.906Z,81.55
2023-04-19T18:45:01.162Z,82.07
2023-04-19T18:47:36.151Z,83.37
2023-04-19T18:50:10.086Z,83.55
2023-04-19T18:52:44.388Z,84.51
2023-04-19T18:55:39.780Z,83.13
2023-04-19T18:58:22.437Z,83.72
2023-04-19T19:01:01.631Z,85.16
2023-04-19T19:04:23.499Z,83.46
2023-04-19T19:06:56.856Z,83.33
2023-04-19T19:09:56.777Z,84.27
2023-04-19T19:12:32.615Z,84.09
2023-04-19T19:15:07.395Z,83.87
2023-04-19T19:17:57.926Z,85.50
2023-04-19T19:20:32.021Z,85.32
2023-04-19T19:23:04.230Z,84.77
2023-04-19T19:25:46.200Z,84.33
2023-04-19T19:28:31.842Z,83.75
2023-04-19T19:31:24.053Z,83.03
2023-04-19T19:34:27.331Z,83.67
2023-04-19T19:37:03.046Z,84.40
2023-04-19T19:39:52.202Z,84.03
2023-04-19T19:42:39.873Z,84.63
2023-04-19T19:45:33.533Z,84.94
2023-04-19T19:48:42.602Z,83.15
2023-04-19T19:51:52.949Z,83.55
2023-04-19T19:54:27.125Z,83.85
2023-04-19T19:59:50.426Z,85.17
2023-04-19T20:02:36.266Z,85.49
2023-04-19T20:05:13.628Z,85.75
2023-04-19T20:08:01.652Z,85.68
2023-04-19T20:10:40.703Z,84.00
2023-04-19T20:13:21.915Z,84.25
2023-04-19T20:15:59.229Z,84.81
2023-04-19T20:18:38.385Z,85.94
2023-04-19T20:21:11.758Z,86.75
2023-04-19T20:23:50.890Z,84.53
2023-04-19T20:26:22.828Z,84.35
2023-04-19T20:29:06.706Z,84.36
2023-04-19T20:31:35.808Z,84.45
2023-04-19T20:34:14.590Z,85.39
2023-04-19T20:37:02.778Z,84.94
2023-04-19T20:39:35.321Z,86.78
2023-04-19T20:42:15.186Z,87.94
2023-04-19T20:44:48.685Z,86.52
2023-04-19T20:47:25.306Z,86.89
2023-04-19T20:49:59.354Z,86.13
2023-04-19T20:52:48.198Z,88.03
2023-04-19T20:55:33.090Z,87.21
2023-04-19T20:58:09.913Z,86.86
2023-04-19T21:00:41.777Z,86.02
2023-04-19T21:03:16.404Z,86.37
2023-04-19T21:05:49.282Z,85.37
2023-04-19T21:08:21.301Z,85.36
2023-04-19T21:10:56.256Z,86.86
2023-04-19T21:13:26.467Z,86.46
2023-04-19T21:15:57.476Z,86.52
2023-04-19T21:18:35.972Z,85.91
2023-04-19T21:21:07.460Z,86.80
2023-04-19T21:23:49.917Z,86.10
2023-04-19T21:26:33.804Z,85.76
2023-04-19T21:29:06.080Z,85.97
2023-04-19T21:31:43.263Z,86.21
2023-04-19T21:34:13.837Z,87.27
2023-04-19T21:36:44.535Z,88.15
2023-04-19T21:39:18.782Z,87.32
2023-04-19T21:41:50.984Z,87.60
2023-04-19T21:44:21.472Z,86.72
2023-04-19T21:46:55.952Z,86.52
2023-04-19T21:49:28.331Z,86.91
2023-04-19T21:51:59.200Z,87.40
2023-04-19T21:54:36.984Z,87.05
2023-04-19T21:57:11.109Z,87.73
2023-04-19T21:59:41.752Z,87.22
2023-04-19T22:02:23.786Z,85.87
2023-04-19T22:05:01.878Z,86.35
2023-04-19T22:07:31.941Z,86.55
2023-04-19T22:10:02.136Z,87.82
2023-04-19T22:12:48.266Z,87.77
2023-04-19T22:15:35.156Z,89.22
2023-04-19T22:18:05.427Z,89.69
2023-04-19T22:20:44.050Z,90.04
2023-04-19T22:23:13.195Z,91.92
2023-04-19T22:25:46.156Z,91.20
2023-04-19T22:28:16.108Z,92.18
2023-04-19T22:30:46.052Z,92.20
2023-04-19T22:33:22.437Z,93.55
2023-04-19T22:35:56.742Z,94.25
2023-04-19T22:38:25.975Z,94.24
2023-04-19T22:40:55.560Z,94.40
2023-04-19T22:43:30.803Z,94.10
2023-04-19T22:46:08.812Z,94.33
2023-04-19T22:48:40.321Z,94.43
2023-04-19T22:51:12.588Z,94.30
2023-04-19T22:53:43.568Z,92.38
2023-04-19T22:56:21.047Z,93.97
2023-04-19T22:59:07.239Z,94.46
2023-04-19T23:01:43.699Z,95.41
2023-04-19T23:04:26.198Z,95.03
2023-04-19T23:06:57.106Z,93.41
2023-04-19T23:09:34.552Z,94.65
2023-04-19T23:12:05.393Z,95.38
2023-04-19T23:14:35.887Z,95.85
2023-04-19T23:17:06.677Z,94.29
2023-04-19T23:19:38.986Z,94.51
2023-04-19T23:22:09.924Z,94.46
2023-04-19T23:24:39.404Z,93.77
2023-04-19T23:27:10.765Z,93.69
2023-04-19T23:29:54.364Z,92.66
2023-04-19T23:32:25.513Z,91.35
2023-04-19T23:34:54.542Z,90.96
2023-04-19T23:37:25.929Z,91.20
2023-04-19T23:39:56.691Z,90.78
2023-04-19T23:42:27.944Z,88.29
2023-04-19T23:45:04.466Z,87.94
2023-04-19T23:47:33.623Z,87.95
2023-04-19T23:50:03.196Z,87.12
2023-04-19T23:52:39.788Z,86.58
2023-04-19T23:55:08.323Z,86.13
2023-04-19T23:57:38.609Z,87.12
